Pine View, New Mexico
Current Conditions -  °F | °C
As of 11:35 AM on Monday 22 Dec 2014 (Local Time) from KSKX Reporting Station
Overcast Overcast  
Wind Chill: 36°   Ceiling: 4500
Heat Index: 41°   Visibility: 10mi
Dew Point: 27°   Wind: 7mph
Humidity: 57%   Direction: 200°SSW
Pressure: 29.73"   Gusts: NA
Location:  36.1892°N, 105.688°W
Report Text: KSKX 221835Z AUTO 20006KT 10SM BKN045 OVC050 05/M03 A2973 RMK AO1
Loading
Personal Weather Stations






























Interactive Weather Map New forecast layout! Learn more

10-Day Weather Forecast

Advertisements
Track Severe Weather on mobile